createdAt,value
2018-05-10T00:00:38.273Z,12.10
2018-05-10T00:03:06.647Z,11.43
2018-05-10T00:05:35.119Z,11.53
2018-05-10T00:08:03.494Z,11.87
2018-05-10T00:10:31.909Z,11.90
2018-05-10T00:13:00.758Z,11.50
2018-05-10T00:15:29.114Z,10.77
2018-05-10T00:17:57.479Z,11.60
2018-05-10T00:20:25.850Z,11.60
2018-05-10T00:22:54.227Z,12.67
2018-05-10T00:25:22.781Z,12.00
2018-05-10T00:27:51.096Z,11.27
2018-05-10T00:30:19.580Z,12.27
2018-05-10T00:32:47.966Z,12.10
2018-05-10T00:35:16.343Z,12.07
2018-05-10T00:37:44.703Z,12.37
2018-05-10T00:40:13.072Z,12.03
2018-05-10T00:42:41.834Z,11.40
2018-05-10T00:45:10.211Z,12.00
2018-05-10T00:47:38.574Z,11.27
2018-05-10T00:50:06.934Z,11.87
2018-05-10T00:52:35.294Z,11.83
2018-05-10T00:55:03.657Z,11.90
2018-05-10T00:57:32.512Z,12.50
2018-05-10T01:00:00.890Z,11.70
2018-05-10T01:02:29.282Z,11.57
2018-05-10T01:04:57.752Z,12.37
2018-05-10T01:07:26.443Z,11.27
2018-05-10T01:09:54.920Z,11.03
2018-05-10T01:12:23.357Z,12.10
2018-05-10T01:14:51.712Z,12.70
2018-05-10T01:17:20.568Z,11.00
2018-05-10T01:19:48.936Z,11.10
2018-05-10T01:22:17.304Z,11.00
2018-05-10T01:24:45.691Z,12.00
2018-05-10T01:27:14.068Z,11.77
2018-05-10T01:29:42.443Z,12.30
2018-05-10T01:32:10.837Z,11.37
2018-05-10T01:34:39.196Z,11.57
2018-05-10T01:37:07.585Z,11.87
2018-05-10T01:39:35.950Z,11.30
2018-05-10T01:42:04.314Z,11.20
2018-05-10T01:44:32.699Z,11.37
2018-05-10T01:47:01.081Z,11.40
2018-05-10T01:49:29.469Z,11.97
2018-05-10T01:51:57.892Z,10.47
2018-05-10T01:54:27.408Z,11.77
2018-05-10T01:56:56.178Z,11.10
2018-05-10T01:59:24.630Z,11.60
2018-05-10T02:01:53.025Z,11.13
2018-05-10T02:04:21.408Z,11.10
2018-05-10T02:06:49.768Z,11.00
2018-05-10T02:09:18.130Z,11.40
2018-05-10T02:11:46.516Z,11.10
2018-05-10T02:14:14.908Z,10.90
2018-05-10T02:16:43.270Z,11.40
2018-05-10T02:19:11.634Z,11.73
2018-05-10T02:21:40.056Z,10.73
2018-05-10T02:24:08.440Z,11.07
2018-05-10T02:26:36.909Z,10.37
2018-05-10T02:29:05.271Z,11.50
2018-05-10T02:31:33.646Z,10.30
2018-05-10T02:34:02.022Z,10.13
2018-05-10T02:36:30.483Z,10.37
2018-05-10T02:38:58.904Z,11.07
2018-05-10T02:41:27.189Z,9.90
2018-05-10T02:43:55.565Z,10.90
2018-05-10T02:46:23.961Z,11.20
2018-05-10T02:48:52.411Z,9.73
2018-05-10T02:51:20.801Z,11.43
2018-05-10T02:53:49.162Z,9.90
2018-05-10T02:56:17.521Z,9.60
2018-05-10T02:58:45.887Z,10.77
2018-05-10T03:01:14.251Z,10.30
2018-05-10T03:03:43.039Z,11.60
2018-05-10T03:06:11.813Z,12.13
2018-05-10T03:08:40.198Z,9.70
2018-05-10T03:11:08.648Z,10.60
2018-05-10T03:13:37.019Z,10.97
2018-05-10T03:16:05.415Z,10.90
2018-05-10T03:18:33.790Z,10.83
2018-05-10T03:21:02.143Z,11.23
2018-05-10T03:23:30.646Z,11.13
2018-05-10T03:25:59.031Z,11.20
2018-05-10T03:28:27.500Z,11.40
2018-05-10T03:30:55.882Z,10.37
2018-05-10T03:33:24.349Z,11.53
2018-05-10T03:35:52.630Z,10.77
2018-05-10T03:38:20.990Z,11.03
2018-05-10T03:40:49.407Z,10.60
2018-05-10T03:43:17.768Z,10.70
2018-05-10T03:45:46.139Z,10.33
2018-05-10T03:48:14.508Z,9.63
2018-05-10T03:50:42.915Z,10.60
2018-05-10T03:53:11.307Z,9.67
2018-05-10T03:55:39.786Z,10.70
2018-05-10T03:58:08.145Z,10.10
2018-05-10T04:00:36.543Z,11.33
2018-05-10T04:06:50.323Z,10.90
2018-05-10T04:09:36.902Z,9.60
2018-05-10T04:12:05.285Z,10.40
2018-05-10T04:14:33.783Z,10.93
2018-05-10T04:17:02.146Z,10.17
2018-05-10T04:19:30.616Z,10.77
2018-05-10T04:21:58.985Z,10.20
2018-05-10T04:24:27.363Z,10.50
2018-05-10T04:26:56.380Z,9.87
2018-05-10T04:29:24.760Z,10.57
2018-05-10T04:31:53.226Z,10.10
2018-05-10T04:34:21.615Z,10.07
2018-05-10T04:36:50.015Z,10.13
2018-05-10T04:39:18.374Z,10.30
2018-05-10T04:41:46.735Z,9.07
2018-05-10T04:44:15.115Z,9.80
2018-05-10T04:46:43.475Z,9.73
2018-05-10T04:49:11.878Z,9.30
2018-05-10T04:51:40.253Z,9.30
2018-05-10T04:54:08.615Z,9.80
2018-05-10T04:56:36.983Z,9.90
2018-05-10T04:59:05.389Z,9.10
2018-05-10T05:01:33.886Z,10.47
2018-05-10T05:04:02.590Z,10.03
2018-05-10T05:06:31.047Z,9.30
2018-05-10T05:08:59.492Z,10.53
2018-05-10T05:11:27.829Z,9.83
2018-05-10T05:13:56.230Z,9.43
2018-05-10T05:16:25.033Z,9.40
2018-05-10T05:18:53.412Z,10.00
2018-05-10T05:21:21.794Z,10.73
2018-05-10T05:23:50.142Z,9.83
2018-05-10T05:26:20.035Z,10.60
2018-05-10T05:28:48.403Z,10.93
2018-05-10T05:31:16.850Z,9.40
2018-05-10T05:33:45.332Z,9.73
2018-05-10T05:36:13.721Z,9.83
2018-05-10T05:38:42.113Z,9.60
2018-05-10T05:41:10.588Z,9.40
2018-05-10T05:43:39.314Z,8.30
2018-05-10T05:46:07.679Z,9.93
2018-05-10T05:48:36.195Z,8.67
2018-05-10T05:51:04.963Z,9.27
2018-05-10T05:53:33.318Z,9.10
2018-05-10T05:56:01.715Z,7.70
2018-05-10T05:58:30.099Z,8.50
2018-05-10T06:00:58.459Z,9.50
2018-05-10T06:03:26.995Z,9.00
2018-05-10T06:05:55.358Z,9.40
2018-05-10T06:08:24.109Z,9.90
2018-05-10T06:10:52.479Z,9.17
2018-05-10T06:13:20.866Z,9.67
2018-05-10T06:15:49.344Z,10.23
2018-05-10T06:18:17.699Z,9.90
2018-05-10T06:20:46.074Z,9.70
2018-05-10T06:23:14.442Z,9.03
2018-05-10T06:25:42.866Z,9.33
2018-05-10T06:28:11.337Z,9.60
2018-05-10T06:30:39.701Z,9.57
2018-05-10T06:33:08.091Z,8.67
2018-05-10T06:35:36.461Z,9.57
2018-05-10T06:38:04.821Z,8.90
2018-05-10T06:40:33.300Z,9.40
2018-05-10T06:43:01.702Z,10.10
2018-05-10T06:45:30.170Z,9.90
2018-05-10T06:47:58.562Z,9.63
2018-05-10T06:50:26.923Z,9.33
2018-05-10T06:52:55.366Z,9.27
2018-05-10T06:55:24.868Z,9.20
2018-05-10T06:57:53.635Z,9.23
2018-05-10T07:00:21.998Z,9.00
2018-05-10T07:02:50.598Z,8.90
2018-05-10T07:05:18.967Z,8.00
2018-05-10T07:07:47.330Z,9.13
2018-05-10T07:10:15.700Z,9.10
2018-05-10T07:12:44.077Z,9.00
2018-05-10T07:15:12.461Z,8.30
2018-05-10T07:17:40.829Z,8.60
2018-05-10T07:20:09.237Z,8.80
2018-05-10T07:22:37.718Z,7.87
2018-05-10T07:25:06.304Z,7.53
2018-05-10T07:27:34.614Z,8.03
2018-05-10T07:30:03.474Z,7.90
2018-05-10T07:32:31.831Z,6.70
2018-05-10T07:35:00.222Z,8.37
2018-05-10T07:37:28.611Z,7.83
2018-05-10T07:39:56.989Z,6.30
2018-05-10T07:42:25.355Z,6.50
2018-05-10T07:44:53.732Z,7.70
2018-05-10T07:47:22.397Z,6.10
2018-05-10T07:49:50.726Z,6.03
2018-05-10T07:52:19.089Z,4.80
2018-05-10T07:54:47.464Z,6.00
2018-05-10T07:57:15.856Z,5.43
2018-05-10T07:59:44.237Z,5.83
2018-05-10T08:02:12.724Z,5.10
2018-05-10T08:04:41.064Z,5.50
2018-05-10T08:07:09.547Z,5.87
2018-05-10T08:09:37.908Z,4.93
2018-05-10T08:12:06.293Z,4.50
2018-05-10T08:14:34.723Z,4.77
2018-05-10T08:17:03.226Z,4.50
2018-05-10T08:19:31.557Z,4.80
2018-05-10T08:21:59.935Z,5.10
2018-05-10T08:24:28.319Z,4.20
2018-05-10T08:26:56.797Z,3.60
2018-05-10T08:29:33.050Z,3.70
2018-05-10T08:32:01.444Z,3.93
2018-05-10T08:34:29.848Z,3.83
2018-05-10T08:36:58.639Z,3.60
2018-05-10T08:39:27.033Z,3.80
2018-05-10T08:41:55.453Z,3.93
2018-05-10T08:44:23.837Z,3.53
2018-05-10T08:46:52.235Z,3.90
2018-05-10T08:49:21.122Z,3.37
2018-05-10T08:51:49.617Z,3.80
2018-05-10T08:54:18.291Z,3.50
2018-05-10T08:56:47.174Z,3.87
2018-05-10T08:59:15.559Z,3.67
2018-05-10T09:01:43.967Z,3.70
2018-05-10T09:04:12.437Z,3.57
2018-05-10T09:06:41.243Z,3.90
2018-05-10T09:09:10.126Z,3.80
2018-05-10T09:11:38.646Z,4.13
2018-05-10T09:14:07.058Z,4.00
2018-05-10T09:16:35.449Z,3.80
2018-05-10T09:19:03.826Z,3.90
2018-05-10T09:21:32.208Z,3.70
2018-05-10T09:24:01.088Z,3.83
2018-05-10T09:26:29.466Z,3.60
2018-05-10T09:28:57.851Z,3.20
2018-05-10T09:31:26.679Z,4.03
2018-05-10T09:33:55.172Z,3.43
2018-05-10T09:36:23.982Z,3.93
2018-05-10T09:38:52.385Z,3.27
2018-05-10T09:41:20.778Z,3.23
2018-05-10T09:43:49.660Z,3.70
2018-05-10T09:46:18.452Z,3.50
2018-05-10T09:48:46.825Z,3.70
2018-05-10T09:51:15.222Z,4.00
2018-05-10T09:53:44.036Z,3.67
2018-05-10T09:56:12.442Z,3.90
2018-05-10T09:58:40.857Z,4.17
2018-05-10T10:01:09.242Z,3.60
2018-05-10T10:03:38.084Z,3.63
2018-05-10T10:06:06.548Z,3.60
2018-05-10T10:08:35.480Z,3.30
2018-05-10T10:11:04.042Z,3.67
2018-05-10T10:13:32.386Z,4.10
2018-05-10T10:16:00.852Z,4.20
2018-05-10T10:18:29.207Z,3.30
2018-05-10T10:20:57.602Z,3.63
2018-05-10T10:23:25.966Z,3.60
2018-05-10T10:25:54.319Z,4.17
2018-05-10T10:28:22.682Z,4.37
2018-05-10T10:30:51.047Z,4.10
2018-05-10T10:33:19.886Z,4.47
2018-05-10T10:35:48.259Z,3.80
2018-05-10T10:38:16.719Z,4.60
2018-05-10T10:40:45.002Z,3.87
2018-05-10T10:43:13.358Z,4.30
2018-05-10T10:45:41.790Z,4.70
2018-05-10T10:48:10.159Z,4.07
2018-05-10T10:50:38.517Z,4.30
2018-05-10T10:53:06.919Z,5.50
2018-05-10T10:55:35.313Z,4.30
2018-05-10T10:58:03.674Z,4.97
2018-05-10T11:00:32.028Z,5.30
2018-05-10T11:03:00.426Z,4.80
2018-05-10T11:05:28.796Z,5.07
2018-05-10T11:07:57.174Z,4.97
2018-05-10T11:10:25.533Z,5.07
2018-05-10T11:12:53.910Z,5.53
2018-05-10T11:15:22.276Z,5.07
2018-05-10T11:17:51.147Z,5.70
2018-05-10T11:20:19.563Z,5.30
2018-05-10T11:22:48.051Z,5.97
2018-05-10T11:25:16.419Z,5.27
2018-05-10T11:27:44.800Z,5.90
2018-05-10T11:30:13.221Z,5.47
2018-05-10T11:32:41.580Z,5.47
2018-05-10T11:35:10.285Z,6.23
2018-05-10T11:37:38.667Z,6.10
2018-05-10T11:40:07.075Z,5.50
2018-05-10T11:42:35.443Z,6.77
2018-05-10T11:45:03.806Z,6.83
2018-05-10T11:47:32.174Z,5.70
2018-05-10T11:50:00.539Z,5.60
2018-05-10T11:52:28.999Z,5.10
2018-05-10T11:54:57.357Z,6.10
2018-05-10T11:57:26.153Z,6.97
2018-05-10T11:59:54.544Z,6.40
2018-05-10T12:02:22.911Z,6.03
2018-05-10T12:04:51.750Z,6.33
2018-05-10T12:07:20.122Z,6.43
2018-05-10T12:09:48.504Z,5.50
2018-05-10T12:12:16.883Z,5.83
2018-05-10T12:14:45.259Z,6.37
2018-05-10T12:17:13.624Z,7.20
2018-05-10T12:19:42.037Z,6.07
2018-05-10T12:22:10.428Z,5.67
2018-05-10T12:24:39.240Z,5.90
2018-05-10T12:27:08.022Z,6.17
2018-05-10T12:29:36.865Z,6.00
2018-05-10T12:32:05.269Z,5.67
2018-05-10T12:34:34.108Z,6.10
2018-05-10T12:37:02.479Z,6.13
2018-05-10T12:39:30.871Z,6.00
2018-05-10T12:41:59.246Z,4.60
2018-05-10T12:44:27.666Z,5.87
2018-05-10T12:46:56.036Z,4.70
2018-05-10T12:49:24.397Z,4.77
2018-05-10T12:51:52.810Z,4.73
2018-05-10T12:54:21.225Z,5.53
2018-05-10T12:56:49.643Z,5.27
2018-05-10T12:59:18.031Z,5.40
2018-05-10T13:01:46.396Z,5.40
2018-05-10T13:04:14.758Z,5.33
2018-05-10T13:06:43.450Z,5.27
2018-05-10T13:09:11.751Z,5.10
2018-05-10T13:11:40.272Z,5.10
2018-05-10T13:14:09.030Z,5.83
2018-05-10T13:16:37.402Z,5.60
2018-05-10T13:19:05.771Z,4.53
2018-05-10T13:21:34.143Z,5.47
2018-05-10T13:24:02.563Z,5.33
2018-05-10T13:26:31.418Z,4.97
2018-05-10T13:29:00.538Z,5.00
2018-05-10T13:31:29.258Z,6.00
2018-05-10T13:33:58.016Z,5.27
2018-05-10T13:36:26.383Z,5.37
2018-05-10T13:38:54.774Z,5.47
2018-05-10T13:41:23.833Z,5.90
2018-05-10T13:43:52.196Z,5.73
2018-05-10T13:46:20.700Z,4.93
2018-05-10T13:48:49.178Z,5.17
2018-05-10T13:51:17.540Z,5.37
2018-05-10T13:53:46.219Z,6.07
2018-05-10T13:56:14.605Z,5.83
2018-05-10T13:58:43.683Z,5.63
2018-05-10T14:01:12.398Z,6.17
2018-05-10T14:03:40.794Z,6.10
2018-05-10T14:06:09.173Z,5.80
2018-05-10T14:08:37.543Z,6.43
2018-05-10T14:11:06.008Z,5.20
2018-05-10T14:13:34.361Z,5.57
2018-05-10T14:16:02.792Z,5.50
2018-05-10T14:18:31.170Z,5.07
2018-05-10T14:20:59.563Z,5.83
2018-05-10T14:23:28.024Z,4.60
2018-05-10T14:25:56.428Z,4.90
2018-05-10T14:28:24.950Z,5.23
2018-05-10T14:30:53.370Z,4.70
2018-05-10T14:33:21.795Z,4.60
2018-05-10T14:35:50.159Z,4.60
2018-05-10T14:38:19.048Z,4.77
2018-05-10T14:40:47.424Z,5.07
2018-05-10T14:43:15.850Z,4.00
2018-05-10T14:45:44.234Z,4.53
2018-05-10T14:48:12.647Z,4.27
2018-05-10T14:50:41.035Z,4.70
2018-05-10T14:53:09.495Z,5.13
2018-05-10T14:55:38.015Z,5.23
2018-05-10T14:58:06.811Z,4.93
2018-05-10T15:00:35.693Z,5.53
2018-05-10T15:03:04.473Z,4.67
2018-05-10T15:05:32.934Z,4.77
2018-05-10T15:08:01.332Z,5.40
2018-05-10T15:10:29.726Z,4.07
2018-05-10T15:12:58.495Z,6.30
2018-05-10T15:15:26.860Z,5.70
2018-05-10T15:17:55.229Z,5.50
2018-05-10T15:20:23.754Z,5.37
2018-05-10T15:22:52.519Z,5.03
2018-05-10T15:25:20.888Z,5.13
2018-05-10T15:27:49.273Z,5.57
2018-05-10T15:30:17.746Z,5.47
2018-05-10T15:32:46.158Z,5.27
2018-05-10T15:35:14.935Z,5.87
2018-05-10T15:37:43.861Z,5.47
2018-05-10T15:40:12.246Z,5.03
2018-05-10T15:42:40.638Z,6.63
2018-05-10T15:45:09.020Z,9.00
2018-05-10T15:47:37.383Z,7.10
2018-05-10T15:50:05.745Z,7.90
2018-05-10T15:52:34.299Z,8.23
2018-05-10T15:55:02.684Z,10.00
2018-05-10T15:57:31.554Z,10.90
2018-05-10T15:59:59.937Z,11.10
2018-05-10T16:02:28.317Z,11.77
2018-05-10T16:04:56.728Z,11.20
2018-05-10T16:07:25.524Z,21.23
2018-05-10T16:09:53.963Z,11.13
2018-05-10T16:12:22.474Z,11.80
2018-05-10T16:14:51.219Z,9.30
2018-05-10T16:17:19.603Z,10.53
2018-05-10T16:19:47.981Z,11.27
2018-05-10T16:22:16.348Z,10.90
2018-05-10T16:24:44.756Z,10.47
2018-05-10T16:27:13.178Z,10.47
2018-05-10T16:29:41.564Z,9.77
2018-05-10T16:32:09.935Z,9.80
2018-05-10T16:34:38.311Z,9.00
2018-05-10T16:37:06.688Z,8.10
2018-05-10T16:39:35.085Z,7.57
2018-05-10T16:42:03.569Z,7.47
2018-05-10T16:44:31.981Z,7.00
2018-05-10T16:47:00.477Z,6.90
2018-05-10T16:49:28.891Z,8.40
2018-05-10T16:51:57.264Z,8.60
2018-05-10T16:54:25.632Z,6.83
2018-05-10T16:56:54.414Z,7.40
2018-05-10T16:59:23.179Z,7.17
2018-05-10T17:01:51.610Z,6.30
2018-05-10T17:04:20.247Z,6.03
2018-05-10T17:09:43.968Z,5.87
2018-05-10T17:12:12.730Z,6.23
2018-05-10T17:14:41.107Z,6.53
2018-05-10T17:17:09.658Z,6.97
2018-05-10T17:19:38.015Z,7.00
2018-05-10T17:22:06.837Z,5.40
2018-05-10T17:24:35.199Z,6.60
2018-05-10T17:27:03.565Z,6.23
2018-05-10T17:29:31.926Z,6.70
2018-05-10T17:32:00.686Z,6.03
2018-05-10T17:34:29.030Z,6.53
2018-05-10T17:36:57.413Z,6.60
2018-05-10T17:39:25.851Z,6.53
2018-05-10T17:41:54.590Z,7.33
2018-05-10T17:44:22.945Z,6.33
2018-05-10T17:46:51.288Z,6.50
2018-05-10T17:49:20.059Z,5.57
2018-05-10T17:51:48.397Z,6.20
2018-05-10T17:54:16.758Z,7.00
2018-05-10T17:56:45.157Z,5.50
2018-05-10T17:59:13.518Z,6.47
2018-05-10T18:01:41.887Z,6.97
2018-05-10T18:04:10.244Z,8.70
2018-05-10T18:06:39.082Z,9.17
2018-05-10T18:09:07.463Z,8.07
2018-05-10T18:11:35.828Z,7.57
2018-05-10T18:14:04.203Z,7.50
2018-05-10T18:16:32.594Z,9.60
2018-05-10T18:19:00.969Z,9.30
2018-05-10T18:21:29.343Z,9.80
2018-05-10T18:23:57.766Z,12.97
2018-05-10T18:26:26.134Z,18.77
2018-05-10T18:28:54.554Z,20.17
2018-05-10T18:31:23.402Z,22.23
2018-05-10T18:33:51.762Z,24.97
2018-05-10T18:36:20.137Z,29.80
2018-05-10T18:38:48.489Z,32.43
2018-05-10T18:41:16.871Z,36.70
2018-05-10T18:43:45.222Z,37.07
2018-05-10T18:46:13.978Z,38.50
2018-05-10T18:48:42.338Z,37.93
2018-05-10T18:51:10.698Z,35.90
2018-05-10T18:53:39.078Z,36.27
2018-05-10T18:56:07.482Z,35.93
2018-05-10T18:58:35.849Z,42.17
2018-05-10T19:01:04.213Z,43.30
2018-05-10T19:03:32.700Z,44.03
2018-05-10T19:06:01.177Z,47.00
2018-05-10T19:08:29.568Z,46.23
2018-05-10T19:10:57.926Z,52.47
2018-05-10T19:13:26.326Z,48.50
2018-05-10T19:15:54.690Z,50.00
2018-05-10T19:18:23.071Z,50.97
2018-05-10T19:20:51.503Z,48.43
2018-05-10T19:23:19.847Z,47.50
2018-05-10T19:25:48.206Z,46.63
2018-05-10T19:28:16.566Z,43.17
2018-05-10T19:30:44.929Z,42.17
2018-05-10T19:33:13.781Z,38.93
2018-05-10T19:35:42.137Z,35.57
2018-05-10T19:38:10.534Z,36.80
2018-05-10T19:40:38.993Z,34.13
2018-05-10T19:43:07.395Z,32.00
2018-05-10T19:45:35.761Z,29.60
2018-05-10T19:48:04.153Z,29.90
2018-05-10T19:50:32.530Z,28.80
2018-05-10T19:53:00.890Z,28.60
2018-05-10T19:55:29.240Z,27.70
2018-05-10T19:57:57.991Z,26.73
2018-05-10T20:00:26.349Z,25.73
2018-05-10T20:02:54.755Z,27.03
2018-05-10T20:05:23.211Z,26.53
2018-05-10T20:07:51.581Z,25.90
2018-05-10T20:10:19.974Z,25.83
2018-05-10T20:12:48.554Z,26.73
2018-05-10T20:15:16.919Z,23.13
2018-05-10T20:17:45.298Z,23.70
2018-05-10T20:20:13.710Z,23.40
2018-05-10T20:22:42.065Z,24.60
2018-05-10T20:25:10.505Z,26.50
2018-05-10T20:27:39.259Z,24.83
2018-05-10T20:30:07.630Z,25.90
2018-05-10T20:32:35.998Z,25.23
2018-05-10T20:35:04.353Z,25.63
2018-05-10T20:37:32.727Z,23.37
2018-05-10T20:40:01.091Z,23.30
2018-05-10T20:42:29.478Z,24.70
2018-05-10T20:44:57.838Z,22.50
2018-05-10T20:47:26.602Z,21.30
2018-05-10T20:49:54.966Z,22.07
2018-05-10T20:52:23.320Z,21.27
2018-05-10T20:54:51.702Z,21.63
2018-05-10T20:57:20.073Z,20.07
2018-05-10T20:59:48.470Z,22.90
2018-05-10T21:02:16.834Z,23.73
2018-05-10T21:04:45.223Z,24.63
2018-05-10T21:07:13.622Z,24.80
2018-05-10T21:09:42.000Z,27.70
2018-05-10T21:12:10.369Z,23.53
2018-05-10T21:14:38.747Z,26.17
2018-05-10T21:17:07.143Z,26.77
2018-05-10T21:19:35.531Z,25.17
2018-05-10T21:22:03.889Z,25.53
2018-05-10T21:24:32.905Z,25.70
2018-05-10T21:27:01.275Z,24.97
2018-05-10T21:29:29.716Z,24.97
2018-05-10T21:31:58.095Z,22.50
2018-05-10T21:34:26.494Z,25.40
2018-05-10T21:36:54.862Z,26.87
2018-05-10T21:39:23.255Z,24.93
2018-05-10T21:41:51.627Z,24.00
2018-05-10T21:44:20.118Z,24.50
2018-05-10T21:46:48.499Z,26.23
2018-05-10T21:49:34.695Z,26.20
2018-05-10T21:52:03.174Z,27.90
2018-05-10T21:54:31.648Z,28.70
2018-05-10T21:57:00.019Z,30.57
2018-05-10T21:59:28.380Z,31.33
2018-05-10T22:01:56.759Z,32.03
2018-05-10T22:04:25.114Z,31.07
2018-05-10T22:06:53.490Z,31.40
2018-05-10T22:09:22.444Z,31.97
2018-05-10T22:11:50.794Z,31.33
2018-05-10T22:14:19.255Z,35.80
2018-05-10T22:16:47.617Z,30.20
2018-05-10T22:19:16.375Z,31.60
2018-05-10T22:21:44.942Z,29.40
2018-05-10T22:24:13.441Z,29.37
2018-05-10T22:26:41.901Z,29.10
2018-05-10T22:29:10.262Z,33.70
2018-05-10T22:31:38.622Z,33.10
2018-05-10T22:34:06.990Z,31.10
2018-05-10T22:36:35.842Z,30.57
2018-05-10T22:39:06.795Z,32.83
2018-05-10T22:41:35.146Z,32.47
2018-05-10T22:44:03.529Z,31.30
2018-05-10T22:46:31.921Z,33.57
2018-05-10T22:49:00.274Z,35.37
2018-05-10T22:51:28.670Z,34.83
2018-05-10T22:53:57.047Z,36.57
2018-05-10T22:56:25.403Z,37.67
2018-05-10T22:58:53.799Z,37.90
2018-05-10T23:01:22.162Z,38.17
2018-05-10T23:03:50.542Z,39.47
2018-05-10T23:06:18.954Z,39.63
2018-05-10T23:08:47.319Z,38.47
2018-05-10T23:11:15.674Z,40.70
2018-05-10T23:13:44.055Z,40.50
2018-05-10T23:16:12.437Z,40.57
2018-05-10T23:18:40.806Z,40.50
2018-05-10T23:21:09.169Z,39.53
2018-05-10T23:23:37.534Z,38.93
2018-05-10T23:26:06.282Z,38.17
2018-05-10T23:28:34.662Z,39.10
2018-05-10T23:31:03.023Z,38.60
2018-05-10T23:33:31.412Z,39.10
2018-05-10T23:35:59.998Z,35.70
2018-05-10T23:38:28.353Z,35.97
2018-05-10T23:40:56.751Z,36.47
2018-05-10T23:43:25.138Z,36.33
2018-05-10T23:45:53.645Z,33.60
2018-05-10T23:48:22.010Z,36.03
2018-05-10T23:50:50.362Z,34.87
2018-05-10T23:53:18.744Z,34.30
2018-05-10T23:55:47.225Z,33.83
2018-05-10T23:58:15.574Z,33.23
